sensor_id;sensor_type;location;lat;lon;timestamp;P1;durP1;ratioP1;P2;durP2;ratioP2
18685;SDS011;9473;52.342;13.110;2022-08-19T00:02:11;14.15;;;10.13;;
18685;SDS011;9473;52.342;13.110;2022-08-19T00:05:22;11.60;;;9.18;;
18685;SDS011;9473;52.342;13.110;2022-08-19T00:07:51;15.38;;;9.98;;
18685;SDS011;9473;52.342;13.110;2022-08-19T00:10:21;19.95;;;11.00;;
18685;SDS011;9473;52.342;13.110;2022-08-19T00:13:00;15.35;;;10.40;;
18685;SDS011;9473;52.342;13.110;2022-08-19T00:15:45;17.63;;;11.15;;
18685;SDS011;9473;52.342;13.110;2022-08-19T00:18:31;14.18;;;10.30;;
18685;SDS011;9473;52.342;13.110;2022-08-19T00:21:00;13.55;;;9.63;;
18685;SDS011;9473;52.342;13.110;2022-08-19T00:23:54;13.85;;;10.50;;
18685;SDS011;9473;52.342;13.110;2022-08-19T00:26:25;14.95;;;10.77;;
18685;SDS011;9473;52.342;13.110;2022-08-19T00:29:03;15.55;;;10.30;;
18685;SDS011;9473;52.342;13.110;2022-08-19T00:31:46;15.82;;;11.05;;
18685;SDS011;9473;52.342;13.110;2022-08-19T00:34:25;17.52;;;10.68;;
18685;SDS011;9473;52.342;13.110;2022-08-19T00:37:05;17.33;;;10.75;;
18685;SDS011;9473;52.342;13.110;2022-08-19T00:39:35;13.88;;;9.75;;
18685;SDS011;9473;52.342;13.110;2022-08-19T00:42:04;14.60;;;10.30;;
18685;SDS011;9473;52.342;13.110;2022-08-19T00:44:54;14.90;;;10.40;;
18685;SDS011;9473;52.342;13.110;2022-08-19T00:48:08;15.43;;;10.70;;
18685;SDS011;9473;52.342;13.110;2022-08-19T00:50:42;13.48;;;9.77;;
18685;SDS011;9473;52.342;13.110;2022-08-19T00:53:21;17.05;;;11.40;;
18685;SDS011;9473;52.342;13.110;2022-08-19T00:56:35;14.45;;;10.13;;
18685;SDS011;9473;52.342;13.110;2022-08-19T00:59:50;14.65;;;10.15;;
18685;SDS011;9473;52.342;13.110;2022-08-19T01:02:24;14.80;;;10.15;;
18685;SDS011;9473;52.342;13.110;2022-08-19T01:04:59;12.93;;;9.85;;
18685;SDS011;9473;52.342;13.110;2022-08-19T01:07:40;14.43;;;9.93;;
18685;SDS011;9473;52.342;13.110;2022-08-19T01:10:46;15.40;;;10.88;;
18685;SDS011;9473;52.342;13.110;2022-08-19T01:13:53;13.60;;;10.20;;
18685;SDS011;9473;52.342;13.110;2022-08-19T01:16:48;14.02;;;10.00;;
18685;SDS011;9473;52.342;13.110;2022-08-19T01:19:51;17.38;;;10.60;;
18685;SDS011;9473;52.342;13.110;2022-08-19T01:23:06;15.70;;;10.60;;
18685;SDS011;9473;52.342;13.110;2022-08-19T01:26:09;14.75;;;10.45;;
18685;SDS011;9473;52.342;13.110;2022-08-19T01:28:39;14.63;;;10.98;;
18685;SDS011;9473;52.342;13.110;2022-08-19T01:31:48;16.85;;;10.73;;
18685;SDS011;9473;52.342;13.110;2022-08-19T01:34:36;15.07;;;10.48;;
18685;SDS011;9473;52.342;13.110;2022-08-19T01:37:22;15.43;;;9.88;;
18685;SDS011;9473;52.342;13.110;2022-08-19T01:40:38;15.48;;;10.52;;
18685;SDS011;9473;52.342;13.110;2022-08-19T01:43:10;18.73;;;11.05;;
18685;SDS011;9473;52.342;13.110;2022-08-19T01:45:38;15.75;;;10.68;;
18685;SDS011;9473;52.342;13.110;2022-08-19T01:48:06;18.20;;;11.77;;
18685;SDS011;9473;52.342;13.110;2022-08-19T01:50:33;21.33;;;11.63;;
18685;SDS011;9473;52.342;13.110;2022-08-19T01:53:01;16.10;;;10.90;;
18685;SDS011;9473;52.342;13.110;2022-08-19T01:55:31;19.30;;;11.60;;
18685;SDS011;9473;52.342;13.110;2022-08-19T01:58:00;21.92;;;11.48;;
18685;SDS011;9473;52.342;13.110;2022-08-19T02:00:33;19.70;;;12.43;;
18685;SDS011;9473;52.342;13.110;2022-08-19T02:03:00;17.55;;;11.07;;
18685;SDS011;9473;52.342;13.110;2022-08-19T02:05:31;21.10;;;12.55;;
18685;SDS011;9473;52.342;13.110;2022-08-19T02:07:58;17.20;;;12.50;;
18685;SDS011;9473;52.342;13.110;2022-08-19T02:10:25;17.52;;;11.50;;
18685;SDS011;9473;52.342;13.110;2022-08-19T02:12:52;18.35;;;11.43;;
18685;SDS011;9473;52.342;13.110;2022-08-19T02:15:20;16.50;;;11.73;;
18685;SDS011;9473;52.342;13.110;2022-08-19T02:17:47;16.73;;;11.55;;
18685;SDS011;9473;52.342;13.110;2022-08-19T02:20:15;16.75;;;11.32;;
18685;SDS011;9473;52.342;13.110;2022-08-19T02:22:42;16.85;;;11.48;;
18685;SDS011;9473;52.342;13.110;2022-08-19T02:25:10;15.95;;;11.95;;
18685;SDS011;9473;52.342;13.110;2022-08-19T02:27:37;16.50;;;11.52;;
18685;SDS011;9473;52.342;13.110;2022-08-19T02:30:05;17.40;;;12.02;;
18685;SDS011;9473;52.342;13.110;2022-08-19T02:32:34;17.35;;;10.82;;
18685;SDS011;9473;52.342;13.110;2022-08-19T02:35:01;16.98;;;10.95;;
18685;SDS011;9473;52.342;13.110;2022-08-19T02:37:28;18.92;;;11.55;;
18685;SDS011;9473;52.342;13.110;2022-08-19T02:40:13;15.68;;;10.95;;
18685;SDS011;9473;52.342;13.110;2022-08-19T02:42:40;17.25;;;12.18;;
18685;SDS011;9473;52.342;13.110;2022-08-19T02:45:07;13.90;;;10.88;;
18685;SDS011;9473;52.342;13.110;2022-08-19T02:47:36;15.93;;;10.95;;
18685;SDS011;9473;52.342;13.110;2022-08-19T02:50:03;16.95;;;9.95;;
18685;SDS011;9473;52.342;13.110;2022-08-19T02:52:31;17.98;;;10.80;;
18685;SDS011;9473;52.342;13.110;2022-08-19T02:54:58;14.90;;;10.55;;
18685;SDS011;9473;52.342;13.110;2022-08-19T02:57:26;16.45;;;10.40;;
18685;SDS011;9473;52.342;13.110;2022-08-19T02:59:53;16.02;;;10.60;;
18685;SDS011;9473;52.342;13.110;2022-08-19T03:02:20;15.32;;;11.13;;
18685;SDS011;9473;52.342;13.110;2022-08-19T03:04:48;15.02;;;11.00;;
18685;SDS011;9473;52.342;13.110;2022-08-19T03:07:16;16.40;;;10.90;;
18685;SDS011;9473;52.342;13.110;2022-08-19T03:09:43;14.75;;;10.65;;
18685;SDS011;9473;52.342;13.110;2022-08-19T03:12:10;16.08;;;10.88;;
18685;SDS011;9473;52.342;13.110;2022-08-19T03:14:37;16.27;;;12.10;;
18685;SDS011;9473;52.342;13.110;2022-08-19T03:17:04;17.63;;;12.27;;
18685;SDS011;9473;52.342;13.110;2022-08-19T03:19:31;18.50;;;11.57;;
18685;SDS011;9473;52.342;13.110;2022-08-19T03:21:59;16.33;;;10.70;;
18685;SDS011;9473;52.342;13.110;2022-08-19T03:24:29;17.90;;;12.50;;
18685;SDS011;9473;52.342;13.110;2022-08-19T03:26:56;16.90;;;11.95;;
18685;SDS011;9473;52.342;13.110;2022-08-19T03:29:23;20.92;;;12.18;;
18685;SDS011;9473;52.342;13.110;2022-08-19T03:31:50;16.55;;;11.50;;
18685;SDS011;9473;52.342;13.110;2022-08-19T03:34:18;15.63;;;11.32;;
18685;SDS011;9473;52.342;13.110;2022-08-19T03:36:46;19.20;;;11.75;;
18685;SDS011;9473;52.342;13.110;2022-08-19T03:39:14;18.30;;;11.98;;
18685;SDS011;9473;52.342;13.110;2022-08-19T03:41:42;18.73;;;11.88;;
18685;SDS011;9473;52.342;13.110;2022-08-19T03:44:09;16.65;;;11.82;;
18685;SDS011;9473;52.342;13.110;2022-08-19T03:46:36;18.35;;;11.98;;
18685;SDS011;9473;52.342;13.110;2022-08-19T03:49:04;17.70;;;11.90;;
18685;SDS011;9473;52.342;13.110;2022-08-19T03:51:33;19.55;;;12.07;;
18685;SDS011;9473;52.342;13.110;2022-08-19T03:54:02;20.52;;;12.57;;
18685;SDS011;9473;52.342;13.110;2022-08-19T03:56:30;18.13;;;11.82;;
18685;SDS011;9473;52.342;13.110;2022-08-19T03:58:58;15.70;;;11.35;;
18685;SDS011;9473;52.342;13.110;2022-08-19T04:01:26;17.73;;;12.23;;
18685;SDS011;9473;52.342;13.110;2022-08-19T04:03:55;16.05;;;11.95;;
18685;SDS011;9473;52.342;13.110;2022-08-19T04:06:23;16.45;;;11.20;;
18685;SDS011;9473;52.342;13.110;2022-08-19T04:08:51;16.13;;;11.60;;
18685;SDS011;9473;52.342;13.110;2022-08-19T04:11:19;15.05;;;10.85;;
18685;SDS011;9473;52.342;13.110;2022-08-19T04:13:47;18.30;;;11.88;;
18685;SDS011;9473;52.342;13.110;2022-08-19T04:16:16;16.83;;;11.77;;
18685;SDS011;9473;52.342;13.110;2022-08-19T04:18:44;18.38;;;12.13;;
18685;SDS011;9473;52.342;13.110;2022-08-19T04:21:15;16.80;;;12.20;;
18685;SDS011;9473;52.342;13.110;2022-08-19T04:23:42;15.75;;;11.43;;
18685;SDS011;9473;52.342;13.110;2022-08-19T04:26:11;16.83;;;12.00;;
18685;SDS011;9473;52.342;13.110;2022-08-19T04:28:39;14.70;;;10.45;;
18685;SDS011;9473;52.342;13.110;2022-08-19T04:31:11;16.02;;;9.73;;
18685;SDS011;9473;52.342;13.110;2022-08-19T04:33:39;18.58;;;12.60;;
18685;SDS011;9473;52.342;13.110;2022-08-19T04:36:06;19.27;;;12.82;;
18685;SDS011;9473;52.342;13.110;2022-08-19T04:38:35;17.88;;;12.30;;
18685;SDS011;9473;52.342;13.110;2022-08-19T04:41:02;17.17;;;12.73;;
18685;SDS011;9473;52.342;13.110;2022-08-19T04:43:47;16.33;;;11.50;;
18685;SDS011;9473;52.342;13.110;2022-08-19T04:46:16;18.13;;;12.32;;
18685;SDS011;9473;52.342;13.110;2022-08-19T04:48:45;17.38;;;12.38;;
18685;SDS011;9473;52.342;13.110;2022-08-19T04:51:12;15.93;;;11.07;;
18685;SDS011;9473;52.342;13.110;2022-08-19T04:53:40;17.80;;;12.20;;
18685;SDS011;9473;52.342;13.110;2022-08-19T04:56:08;15.18;;;11.75;;
18685;SDS011;9473;52.342;13.110;2022-08-19T04:58:35;14.07;;;10.40;;
18685;SDS011;9473;52.342;13.110;2022-08-19T05:01:03;14.73;;;10.25;;
18685;SDS011;9473;52.342;13.110;2022-08-19T05:03:31;14.68;;;10.85;;
18685;SDS011;9473;52.342;13.110;2022-08-19T05:06:03;14.10;;;10.05;;
18685;SDS011;9473;52.342;13.110;2022-08-19T05:08:33;18.00;;;11.73;;
18685;SDS011;9473;52.342;13.110;2022-08-19T05:11:00;15.43;;;11.10;;
18685;SDS011;9473;52.342;13.110;2022-08-19T05:13:27;16.42;;;10.57;;
18685;SDS011;9473;52.342;13.110;2022-08-19T05:15:55;12.88;;;9.82;;
18685;SDS011;9473;52.342;13.110;2022-08-19T05:18:22;13.60;;;10.23;;
18685;SDS011;9473;52.342;13.110;2022-08-19T05:21:08;14.93;;;10.20;;
18685;SDS011;9473;52.342;13.110;2022-08-19T05:23:53;17.30;;;10.40;;
18685;SDS011;9473;52.342;13.110;2022-08-19T05:26:20;12.02;;;9.18;;
18685;SDS011;9473;52.342;13.110;2022-08-19T05:28:47;16.15;;;11.07;;
18685;SDS011;9473;52.342;13.110;2022-08-19T05:31:14;14.43;;;10.60;;
18685;SDS011;9473;52.342;13.110;2022-08-19T05:33:40;15.52;;;10.90;;
18685;SDS011;9473;52.342;13.110;2022-08-19T05:36:09;16.50;;;10.32;;
18685;SDS011;9473;52.342;13.110;2022-08-19T05:38:36;13.60;;;10.20;;
18685;SDS011;9473;52.342;13.110;2022-08-19T05:41:05;14.63;;;10.45;;
18685;SDS011;9473;52.342;13.110;2022-08-19T05:43:32;15.50;;;10.27;;
18685;SDS011;9473;52.342;13.110;2022-08-19T05:45:59;15.25;;;11.30;;
18685;SDS011;9473;52.342;13.110;2022-08-19T05:48:26;13.65;;;10.05;;
18685;SDS011;9473;52.342;13.110;2022-08-19T05:50:53;14.88;;;11.13;;
18685;SDS011;9473;52.342;13.110;2022-08-19T05:53:23;17.73;;;11.68;;
18685;SDS011;9473;52.342;13.110;2022-08-19T05:55:50;14.80;;;11.02;;
18685;SDS011;9473;52.342;13.110;2022-08-19T05:58:17;15.98;;;11.95;;
18685;SDS011;9473;52.342;13.110;2022-08-19T06:00:43;16.38;;;11.57;;
18685;SDS011;9473;52.342;13.110;2022-08-19T06:03:11;17.00;;;11.38;;
18685;SDS011;9473;52.342;13.110;2022-08-19T06:05:38;17.08;;;12.45;;
18685;SDS011;9473;52.342;13.110;2022-08-19T06:08:05;15.32;;;12.10;;
18685;SDS011;9473;52.342;13.110;2022-08-19T06:10:34;17.45;;;12.40;;
18685;SDS011;9473;52.342;13.110;2022-08-19T06:13:01;18.63;;;12.00;;
18685;SDS011;9473;52.342;13.110;2022-08-19T06:15:30;18.73;;;12.23;;
18685;SDS011;9473;52.342;13.110;2022-08-19T06:17:57;16.92;;;12.40;;
18685;SDS011;9473;52.342;13.110;2022-08-19T06:20:24;16.55;;;12.13;;
18685;SDS011;9473;52.342;13.110;2022-08-19T06:22:51;17.20;;;11.57;;
18685;SDS011;9473;52.342;13.110;2022-08-19T06:25:18;18.60;;;11.77;;
18685;SDS011;9473;52.342;13.110;2022-08-19T06:27:47;18.15;;;12.68;;
18685;SDS011;9473;52.342;13.110;2022-08-19T06:30:14;19.13;;;12.95;;
18685;SDS011;9473;52.342;13.110;2022-08-19T06:32:41;15.80;;;11.88;;
18685;SDS011;9473;52.342;13.110;2022-08-19T06:35:08;18.30;;;12.52;;
18685;SDS011;9473;52.342;13.110;2022-08-19T06:37:36;17.67;;;12.45;;
18685;SDS011;9473;52.342;13.110;2022-08-19T06:40:03;16.02;;;11.68;;
18685;SDS011;9473;52.342;13.110;2022-08-19T06:42:30;21.33;;;13.35;;
18685;SDS011;9473;52.342;13.110;2022-08-19T06:44:59;19.88;;;13.98;;
18685;SDS011;9473;52.342;13.110;2022-08-19T06:47:27;20.42;;;13.45;;
18685;SDS011;9473;52.342;13.110;2022-08-19T06:49:55;15.43;;;10.80;;
18685;SDS011;9473;52.342;13.110;2022-08-19T06:52:25;20.83;;;13.93;;
18685;SDS011;9473;52.342;13.110;2022-08-19T06:54:52;19.17;;;14.00;;
18685;SDS011;9473;52.342;13.110;2022-08-19T06:57:19;19.60;;;13.85;;
18685;SDS011;9473;52.342;13.110;2022-08-19T06:59:46;20.10;;;13.80;;
18685;SDS011;9473;52.342;13.110;2022-08-19T07:02:14;17.70;;;12.15;;
18685;SDS011;9473;52.342;13.110;2022-08-19T07:04:41;19.70;;;13.15;;
18685;SDS011;9473;52.342;13.110;2022-08-19T07:07:09;15.93;;;12.18;;
18685;SDS011;9473;52.342;13.110;2022-08-19T07:09:38;22.13;;;13.95;;
18685;SDS011;9473;52.342;13.110;2022-08-19T07:12:05;17.08;;;12.73;;
18685;SDS011;9473;52.342;13.110;2022-08-19T07:14:33;18.15;;;13.82;;
18685;SDS011;9473;52.342;13.110;2022-08-19T07:17:03;16.70;;;11.48;;
18685;SDS011;9473;52.342;13.110;2022-08-19T07:19:31;16.98;;;13.10;;
18685;SDS011;9473;52.342;13.110;2022-08-19T07:22:00;14.52;;;10.90;;
18685;SDS011;9473;52.342;13.110;2022-08-19T07:24:27;20.00;;;13.35;;
18685;SDS011;9473;52.342;13.110;2022-08-19T07:26:55;19.08;;;13.15;;
18685;SDS011;9473;52.342;13.110;2022-08-19T07:29:25;18.92;;;12.45;;
18685;SDS011;9473;52.342;13.110;2022-08-19T07:31:52;19.10;;;12.93;;
18685;SDS011;9473;52.342;13.110;2022-08-19T07:34:21;20.30;;;13.30;;
18685;SDS011;9473;52.342;13.110;2022-08-19T07:36:49;20.80;;;13.48;;
18685;SDS011;9473;52.342;13.110;2022-08-19T07:39:19;18.95;;;13.55;;
18685;SDS011;9473;52.342;13.110;2022-08-19T07:41:47;17.33;;;13.25;;
18685;SDS011;9473;52.342;13.110;2022-08-19T07:44:15;19.20;;;14.38;;
18685;SDS011;9473;52.342;13.110;2022-08-19T07:46:44;20.33;;;14.27;;
18685;SDS011;9473;52.342;13.110;2022-08-19T07:49:11;18.00;;;12.82;;
18685;SDS011;9473;52.342;13.110;2022-08-19T07:51:43;21.50;;;14.32;;
18685;SDS011;9473;52.342;13.110;2022-08-19T07:54:11;20.08;;;13.80;;
18685;SDS011;9473;52.342;13.110;2022-08-19T07:56:38;23.50;;;15.13;;
18685;SDS011;9473;52.342;13.110;2022-08-19T07:59:05;20.42;;;15.32;;
18685;SDS011;9473;52.342;13.110;2022-08-19T08:01:32;21.00;;;15.20;;
18685;SDS011;9473;52.342;13.110;2022-08-19T08:04:00;20.17;;;14.60;;
18685;SDS011;9473;52.342;13.110;2022-08-19T08:06:45;19.58;;;13.38;;
18685;SDS011;9473;52.342;13.110;2022-08-19T08:09:32;17.88;;;13.75;;
18685;SDS011;9473;52.342;13.110;2022-08-19T08:12:00;20.92;;;15.07;;
18685;SDS011;9473;52.342;13.110;2022-08-19T08:14:28;18.98;;;13.60;;
18685;SDS011;9473;52.342;13.110;2022-08-19T08:16:55;19.70;;;14.68;;
18685;SDS011;9473;52.342;13.110;2022-08-19T08:19:24;18.98;;;14.43;;
18685;SDS011;9473;52.342;13.110;2022-08-19T08:21:51;22.38;;;14.82;;
18685;SDS011;9473;52.342;13.110;2022-08-19T08:24:18;19.67;;;15.40;;
18685;SDS011;9473;52.342;13.110;2022-08-19T08:26:47;22.65;;;15.60;;
18685;SDS011;9473;52.342;13.110;2022-08-19T08:29:14;24.02;;;16.05;;
18685;SDS011;9473;52.342;13.110;2022-08-19T08:31:42;23.88;;;17.20;;
18685;SDS011;9473;52.342;13.110;2022-08-19T08:34:09;22.55;;;16.88;;
18685;SDS011;9473;52.342;13.110;2022-08-19T08:36:37;22.52;;;15.77;;
18685;SDS011;9473;52.342;13.110;2022-08-19T08:39:06;22.70;;;15.48;;
18685;SDS011;9473;52.342;13.110;2022-08-19T08:41:35;26.48;;;17.00;;
18685;SDS011;9473;52.342;13.110;2022-08-19T08:44:10;23.98;;;16.90;;
18685;SDS011;9473;52.342;13.110;2022-08-19T08:46:39;21.88;;;16.63;;
18685;SDS011;9473;52.342;13.110;2022-08-19T08:49:11;24.02;;;17.52;;
18685;SDS011;9473;52.342;13.110;2022-08-19T08:51:44;25.10;;;17.33;;
18685;SDS011;9473;52.342;13.110;2022-08-19T08:54:13;25.00;;;17.65;;
18685;SDS011;9473;52.342;13.110;2022-08-19T08:56:40;27.58;;;19.08;;
18685;SDS011;9473;52.342;13.110;2022-08-19T08:59:12;24.58;;;17.17;;
18685;SDS011;9473;52.342;13.110;2022-08-19T09:01:43;27.08;;;17.95;;
18685;SDS011;9473;52.342;13.110;2022-08-19T09:04:10;23.27;;;16.63;;
18685;SDS011;9473;52.342;13.110;2022-08-19T09:06:40;26.00;;;17.50;;
18685;SDS011;9473;52.342;13.110;2022-08-19T09:09:12;26.05;;;18.13;;
18685;SDS011;9473;52.342;13.110;2022-08-19T09:11:46;30.23;;;19.95;;
18685;SDS011;9473;52.342;13.110;2022-08-19T09:14:18;32.03;;;20.17;;
18685;SDS011;9473;52.342;13.110;2022-08-19T09:16:47;23.25;;;17.70;;
18685;SDS011;9473;52.342;13.110;2022-08-19T09:19:15;23.80;;;17.85;;
18685;SDS011;9473;52.342;13.110;2022-08-19T09:21:42;26.38;;;18.55;;
18685;SDS011;9473;52.342;13.110;2022-08-19T09:24:10;26.90;;;19.10;;
18685;SDS011;9473;52.342;13.110;2022-08-19T09:26:37;26.13;;;19.52;;
18685;SDS011;9473;52.342;13.110;2022-08-19T09:29:04;30.00;;;20.27;;
18685;SDS011;9473;52.342;13.110;2022-08-19T09:31:33;26.70;;;18.73;;
18685;SDS011;9473;52.342;13.110;2022-08-19T09:33:59;27.83;;;19.25;;
18685;SDS011;9473;52.342;13.110;2022-08-19T09:36:29;24.95;;;17.95;;
18685;SDS011;9473;52.342;13.110;2022-08-19T09:38:58;32.10;;;20.88;;
18685;SDS011;9473;52.342;13.110;2022-08-19T09:41:26;29.83;;;21.02;;
18685;SDS011;9473;52.342;13.110;2022-08-19T09:43:54;34.55;;;21.52;;
18685;SDS011;9473;52.342;13.110;2022-08-19T09:46:21;31.35;;;20.35;;
18685;SDS011;9473;52.342;13.110;2022-08-19T09:48:50;29.80;;;19.50;;
18685;SDS011;9473;52.342;13.110;2022-08-19T09:51:19;35.20;;;21.90;;
18685;SDS011;9473;52.342;13.110;2022-08-19T09:53:46;35.83;;;22.52;;
18685;SDS011;9473;52.342;13.110;2022-08-19T09:56:15;36.10;;;22.52;;
18685;SDS011;9473;52.342;13.110;2022-08-19T09:58:42;34.15;;;22.15;;
18685;SDS011;9473;52.342;13.110;2022-08-19T10:01:09;33.38;;;22.67;;
18685;SDS011;9473;52.342;13.110;2022-08-19T10:03:36;34.38;;;22.23;;
18685;SDS011;9473;52.342;13.110;2022-08-19T10:06:04;32.90;;;22.10;;
18685;SDS011;9473;52.342;13.110;2022-08-19T10:08:32;35.35;;;21.98;;
18685;SDS011;9473;52.342;13.110;2022-08-19T10:11:00;35.45;;;22.60;;
18685;SDS011;9473;52.342;13.110;2022-08-19T10:13:29;38.53;;;23.40;;
18685;SDS011;9473;52.342;13.110;2022-08-19T10:16:02;32.08;;;20.65;;
18685;SDS011;9473;52.342;13.110;2022-08-19T10:18:29;36.03;;;22.08;;
18685;SDS011;9473;52.342;13.110;2022-08-19T10:21:02;33.70;;;21.65;;
18685;SDS011;9473;52.342;13.110;2022-08-19T10:23:34;36.20;;;23.40;;
18685;SDS011;9473;52.342;13.110;2022-08-19T10:26:02;29.98;;;19.48;;
18685;SDS011;9473;52.342;13.110;2022-08-19T10:28:30;39.40;;;24.48;;
18685;SDS011;9473;52.342;13.110;2022-08-19T10:30:57;35.28;;;21.75;;
18685;SDS011;9473;52.342;13.110;2022-08-19T10:33:24;35.03;;;22.10;;
18685;SDS011;9473;52.342;13.110;2022-08-19T10:35:58;36.58;;;23.73;;
18685;SDS011;9473;52.342;13.110;2022-08-19T10:38:32;36.47;;;23.38;;
18685;SDS011;9473;52.342;13.110;2022-08-19T10:41:12;37.75;;;22.95;;
18685;SDS011;9473;52.342;13.110;2022-08-19T10:43:51;35.30;;;22.00;;
18685;SDS011;9473;52.342;13.110;2022-08-19T10:46:21;36.40;;;22.50;;
18685;SDS011;9473;52.342;13.110;2022-08-19T10:48:58;37.72;;;23.00;;
18685;SDS011;9473;52.342;13.110;2022-08-19T10:51:25;39.25;;;24.60;;
18685;SDS011;9473;52.342;13.110;2022-08-19T10:54:10;40.35;;;22.92;;
18685;SDS011;9473;52.342;13.110;2022-08-19T10:56:38;36.45;;;23.58;;
18685;SDS011;9473;52.342;13.110;2022-08-19T10:59:17;36.55;;;22.75;;
18685;SDS011;9473;52.342;13.110;2022-08-19T11:01:46;40.20;;;24.08;;
18685;SDS011;9473;52.342;13.110;2022-08-19T11:04:13;50.30;;;24.05;;
18685;SDS011;9473;52.342;13.110;2022-08-19T11:06:42;39.78;;;24.30;;
18685;SDS011;9473;52.342;13.110;2022-08-19T11:09:10;38.78;;;23.27;;
18685;SDS011;9473;52.342;13.110;2022-08-19T11:11:39;41.47;;;24.55;;
18685;SDS011;9473;52.342;13.110;2022-08-19T11:14:06;33.35;;;20.73;;
18685;SDS011;9473;52.342;13.110;2022-08-19T11:16:33;37.15;;;23.10;;
18685;SDS011;9473;52.342;13.110;2022-08-19T11:19:01;42.67;;;24.30;;
18685;SDS011;9473;52.342;13.110;2022-08-19T11:21:29;38.22;;;24.08;;
18685;SDS011;9473;52.342;13.110;2022-08-19T11:23:57;40.30;;;24.65;;
18685;SDS011;9473;52.342;13.110;2022-08-19T11:26:24;35.55;;;22.70;;
18685;SDS011;9473;52.342;13.110;2022-08-19T11:28:53;37.60;;;22.50;;
18685;SDS011;9473;52.342;13.110;2022-08-19T11:31:21;35.70;;;22.15;;
18685;SDS011;9473;52.342;13.110;2022-08-19T11:33:48;42.08;;;23.55;;
18685;SDS011;9473;52.342;13.110;2022-08-19T11:36:17;44.13;;;24.92;;
18685;SDS011;9473;52.342;13.110;2022-08-19T11:38:45;41.03;;;24.15;;
18685;SDS011;9473;52.342;13.110;2022-08-19T11:41:13;35.92;;;21.27;;
18685;SDS011;9473;52.342;13.110;2022-08-19T11:43:41;36.72;;;22.17;;
18685;SDS011;9473;52.342;13.110;2022-08-19T11:46:10;36.58;;;21.58;;
18685;SDS011;9473;52.342;13.110;2022-08-19T11:48:37;39.60;;;23.75;;
18685;SDS011;9473;52.342;13.110;2022-08-19T11:51:06;41.28;;;22.90;;
18685;SDS011;9473;52.342;13.110;2022-08-19T11:53:34;39.78;;;22.40;;
18685;SDS011;9473;52.342;13.110;2022-08-19T11:56:01;37.65;;;23.08;;
18685;SDS011;9473;52.342;13.110;2022-08-19T11:58:28;36.50;;;22.30;;
18685;SDS011;9473;52.342;13.110;2022-08-19T12:00:55;38.90;;;22.63;;
18685;SDS011;9473;52.342;13.110;2022-08-19T12:03:24;37.33;;;21.40;;
18685;SDS011;9473;52.342;13.110;2022-08-19T12:05:51;39.20;;;23.15;;
18685;SDS011;9473;52.342;13.110;2022-08-19T12:08:18;33.90;;;21.17;;
18685;SDS011;9473;52.342;13.110;2022-08-19T12:10:45;37.25;;;23.10;;
18685;SDS011;9473;52.342;13.110;2022-08-19T12:13:12;34.58;;;21.45;;
18685;SDS011;9473;52.342;13.110;2022-08-19T12:15:40;35.30;;;21.77;;
18685;SDS011;9473;52.342;13.110;2022-08-19T12:18:08;35.22;;;20.50;;
18685;SDS011;9473;52.342;13.110;2022-08-19T12:20:37;31.67;;;18.83;;
18685;SDS011;9473;52.342;13.110;2022-08-19T12:23:04;33.65;;;20.67;;
18685;SDS011;9473;52.342;13.110;2022-08-19T12:25:32;30.23;;;19.48;;
18685;SDS011;9473;52.342;13.110;2022-08-19T12:27:59;34.80;;;19.98;;
18685;SDS011;9473;52.342;13.110;2022-08-19T12:30:27;30.98;;;19.08;;
18685;SDS011;9473;52.342;13.110;2022-08-19T12:32:54;31.40;;;19.65;;
18685;SDS011;9473;52.342;13.110;2022-08-19T12:35:21;28.73;;;18.58;;
18685;SDS011;9473;52.342;13.110;2022-08-19T12:37:49;29.58;;;19.40;;
18685;SDS011;9473;52.342;13.110;2022-08-19T12:43:20;29.60;;;19.27;;
18685;SDS011;9473;52.342;13.110;2022-08-19T12:45:47;30.15;;;18.50;;
18685;SDS011;9473;52.342;13.110;2022-08-19T12:48:14;25.75;;;17.40;;
18685;SDS011;9473;52.342;13.110;2022-08-19T12:50:41;26.90;;;17.25;;
18685;SDS011;9473;52.342;13.110;2022-08-19T12:53:09;23.50;;;15.57;;
18685;SDS011;9473;52.342;13.110;2022-08-19T12:55:36;25.25;;;15.93;;
18685;SDS011;9473;52.342;13.110;2022-08-19T12:58:03;20.67;;;14.65;;
18685;SDS011;9473;52.342;13.110;2022-08-19T13:00:30;22.70;;;15.73;;
18685;SDS011;9473;52.342;13.110;2022-08-19T13:02:58;21.73;;;15.45;;
18685;SDS011;9473;52.342;13.110;2022-08-19T13:05:26;24.05;;;15.20;;
18685;SDS011;9473;52.342;13.110;2022-08-19T13:07:53;23.45;;;14.73;;
18685;SDS011;9473;52.342;13.110;2022-08-19T13:10:23;21.52;;;14.40;;
18685;SDS011;9473;52.342;13.110;2022-08-19T13:12:51;21.73;;;14.50;;
18685;SDS011;9473;52.342;13.110;2022-08-19T13:15:19;23.60;;;15.90;;
18685;SDS011;9473;52.342;13.110;2022-08-19T13:17:47;21.42;;;14.55;;
18685;SDS011;9473;52.342;13.110;2022-08-19T13:20:15;19.80;;;13.27;;
18685;SDS011;9473;52.342;13.110;2022-08-19T13:22:42;19.67;;;14.13;;
18685;SDS011;9473;52.342;13.110;2022-08-19T13:25:10;22.00;;;14.63;;
18685;SDS011;9473;52.342;13.110;2022-08-19T13:27:39;20.98;;;13.68;;
18685;SDS011;9473;52.342;13.110;2022-08-19T13:30:06;21.35;;;13.40;;
18685;SDS011;9473;52.342;13.110;2022-08-19T13:32:51;21.23;;;13.98;;
18685;SDS011;9473;52.342;13.110;2022-08-19T13:35:36;19.90;;;13.57;;
18685;SDS011;9473;52.342;13.110;2022-08-19T13:38:03;21.88;;;14.75;;
18685;SDS011;9473;52.342;13.110;2022-08-19T13:40:30;17.60;;;12.82;;
18685;SDS011;9473;52.342;13.110;2022-08-19T13:43:00;18.25;;;12.77;;
18685;SDS011;9473;52.342;13.110;2022-08-19T13:45:28;18.63;;;12.98;;
18685;SDS011;9473;52.342;13.110;2022-08-19T13:47:58;17.60;;;11.82;;
18685;SDS011;9473;52.342;13.110;2022-08-19T13:50:26;16.63;;;12.35;;
18685;SDS011;9473;52.342;13.110;2022-08-19T13:52:54;17.77;;;11.75;;
18685;SDS011;9473;52.342;13.110;2022-08-19T13:55:21;19.60;;;12.52;;
18685;SDS011;9473;52.342;13.110;2022-08-19T13:57:49;16.13;;;11.23;;
18685;SDS011;9473;52.342;13.110;2022-08-19T14:00:18;19.40;;;11.88;;
18685;SDS011;9473;52.342;13.110;2022-08-19T14:02:45;19.85;;;12.65;;
18685;SDS011;9473;52.342;13.110;2022-08-19T14:05:14;16.88;;;11.77;;
18685;SDS011;9473;52.342;13.110;2022-08-19T14:07:41;19.75;;;13.48;;
18685;SDS011;9473;52.342;13.110;2022-08-19T14:10:09;18.75;;;12.68;;
18685;SDS011;9473;52.342;13.110;2022-08-19T14:12:36;14.70;;;10.85;;
18685;SDS011;9473;52.342;13.110;2022-08-19T14:15:04;17.40;;;12.20;;
18685;SDS011;9473;52.342;13.110;2022-08-19T14:17:32;19.15;;;12.88;;
18685;SDS011;9473;52.342;13.110;2022-08-19T14:20:00;19.60;;;12.60;;
18685;SDS011;9473;52.342;13.110;2022-08-19T14:22:29;17.20;;;11.95;;
18685;SDS011;9473;52.342;13.110;2022-08-19T14:24:56;18.45;;;12.18;;
18685;SDS011;9473;52.342;13.110;2022-08-19T14:27:23;15.93;;;11.57;;
18685;SDS011;9473;52.342;13.110;2022-08-19T14:29:50;18.60;;;12.40;;
18685;SDS011;9473;52.342;13.110;2022-08-19T14:32:17;18.58;;;12.63;;
18685;SDS011;9473;52.342;13.110;2022-08-19T14:34:45;16.80;;;12.52;;
18685;SDS011;9473;52.342;13.110;2022-08-19T14:37:12;19.35;;;12.40;;
18685;SDS011;9473;52.342;13.110;2022-08-19T14:39:39;15.23;;;11.90;;
18685;SDS011;9473;52.342;13.110;2022-08-19T14:42:06;17.20;;;12.13;;
18685;SDS011;9473;52.342;13.110;2022-08-19T14:44:34;17.50;;;11.88;;